Time;durP1;ratioP1;P1;durP2;ratioP2;P2;SDS_P1;SDS_P2;PMS_P1;PMS_P2;Temp;Humidity;BMP_temperature;BMP_pressure;BME280_temperature;BME280_humidity;BME280_pressure;Samples;Min_cycle;Max_cycle;Signal;HPM_P1;HPM_P2
2022/01/02 00:00:44;;;;;;;11.82;6.40;;;;;;;2.94;100.00;99727.34;5084285;28;20135;-77
2022/01/02 00:03:19;;;;;;;12.05;7.18;;;;;;;2.84;100.00;99716.47;5093550;28;20074;-77
2022/01/02 00:05:46;;;;;;;12.80;6.22;;;;;;;2.64;100.00;99710.84;5082102;28;20041;-77
2022/01/02 00:08:14;;;;;;;10.57;6.25;;;;;;;2.56;100.00;99724.03;5088141;28;20063;-77
2022/01/02 00:10:49;;;;;;;11.68;6.82;;;;;;;2.49;100.00;99720.09;5080409;28;20053;-77
2022/01/02 00:13:22;;;;;;;12.63;5.82;;;;;;;2.70;100.00;99730.13;5082969;28;20048;-77
2022/01/02 00:15:55;;;;;;;11.95;6.60;;;;;;;2.64;100.00;99720.72;5074737;28;20507;-77
2022/01/02 00:18:27;;;;;;;12.10;7.03;;;;;;;2.63;100.00;99716.31;5093723;28;20055;-77
2022/01/02 00:20:56;;;;;;;12.57;6.80;;;;;;;2.68;100.00;99708.78;5097805;28;20080;-77
2022/01/02 00:23:30;;;;;;;14.50;6.35;;;;;;;2.60;100.00;99709.34;5094784;28;20509;-77
2022/01/02 00:26:04;;;;;;;13.27;7.22;;;;;;;2.60;100.00;99713.88;5077192;28;20056;-77
2022/01/02 00:28:33;;;;;;;11.85;6.00;;;;;;;2.63;100.00;99716.31;5077186;28;20056;-78
2022/01/02 00:31:00;;;;;;;13.07;7.22;;;;;;;2.51;100.00;99701.19;5091317;28;20048;-77
2022/01/02 00:33:29;;;;;;;12.40;6.78;;;;;;;2.61;100.00;99710.22;5088345;28;20055;-78
2022/01/02 00:35:56;;;;;;;11.80;5.83;;;;;;;2.54;100.00;99711.69;5090300;28;20067;-77
2022/01/02 00:38:23;;;;;;;13.60;6.43;;;;;;;2.56;100.00;99701.66;5076896;28;20041;-77
2022/01/02 00:40:52;;;;;;;13.00;6.63;;;;;;;2.61;100.00;99710.22;5086189;28;20507;-78
2022/01/02 00:43:30;;;;;;;10.63;6.10;;;;;;;2.63;100.00;99700.22;5096815;28;20075;-77
2022/01/02 00:46:00;;;;;;;12.07;6.38;;;;;;;2.59;100.00;99706.78;5083990;28;20040;-77
2022/01/02 00:48:30;;;;;;;11.82;6.15;;;;;;;2.57;100.00;99706.06;5089556;28;20055;-78
2022/01/02 00:51:02;;;;;;;12.18;5.95;;;;;;;2.68;100.00;99691.81;5088032;28;20040;-78
2022/01/02 00:53:35;;;;;;;12.80;6.07;;;;;;;2.59;100.00;99686.19;5095626;28;20048;-77
2022/01/02 00:56:03;;;;;;;14.02;6.20;;;;;;;2.53;100.00;99688.50;5083305;28;20048;-77
2022/01/02 00:58:35;;;;;;;8.98;5.80;;;;;;;2.58;100.00;99686.31;5088407;28;20054;-77
2022/01/02 01:01:06;;;;;;;11.43;6.43;;;;;;;2.49;100.00;99682.53;5082076;28;20087;-77
2022/01/02 01:03:35;;;;;;;8.43;5.78;;;;;;;2.51;100.00;99672.50;5091295;28;20055;-77
2022/01/02 01:06:05;;;;;;;17.88;6.38;;;;;;;2.50;100.00;99678.88;5076884;28;20510;-77
2022/01/02 01:08:33;;;;;;;9.75;6.10;;;;;;;2.31;100.00;99666.03;5093351;28;20055;-77
2022/01/02 01:11:04;;;;;;;14.00;6.03;;;;;;;2.36;100.00;99671.88;5096460;28;20056;-78
2022/01/02 01:13:31;;;;;;;9.25;5.30;;;;;;;2.34;100.00;99657.75;5085920;28;20052;-77
2022/01/02 01:15:58;;;;;;;9.52;4.90;;;;;;;2.27;100.00;99661.88;5075686;28;20067;-77
2022/01/02 01:18:25;;;;;;;16.92;5.30;;;;;;;2.46;100.00;99659.44;5087052;28;20050;-77
2022/01/02 01:20:54;;;;;;;7.70;4.32;;;;;;;2.40;100.00;99656.41;5085429;28;20048;-77
2022/01/02 01:23:22;;;;;;;9.40;4.45;;;;;;;2.40;100.00;99643.84;5083294;28;20097;-77
2022/01/02 01:25:50;;;;;;;8.10;4.80;;;;;;;2.44;100.00;99647.16;5096096;28;20091;-77
2022/01/02 01:28:18;;;;;;;8.85;4.93;;;;;;;2.43;100.00;99648.97;5089496;28;20045;-77
2022/01/02 01:30:45;;;;;;;9.55;5.13;;;;;;;2.31;100.00;99644.56;5093091;28;20492;-77
2022/01/02 01:33:12;;;;;;;10.23;5.00;;;;;;;2.29;100.00;99644.69;5079454;28;20047;-77
2022/01/02 01:35:40;;;;;;;9.82;5.13;;;;;;;2.34;100.00;99647.00;5095770;28;20048;-78
2022/01/02 01:38:10;;;;;;;10.90;5.22;;;;;;;2.28;100.00;99655.53;5095057;28;20074;-78
2022/01/02 01:40:41;;;;;;;10.35;5.40;;;;;;;2.30;100.00;99648.22;5078171;28;20052;-77
2022/01/02 01:43:12;;;;;;;12.50;5.15;;;;;;;2.29;100.00;99643.84;5078704;28;20130;-77
2022/01/02 01:45:40;;;;;;;7.53;4.55;;;;;;;2.21;100.00;99643.56;5095725;28;20127;-77
2022/01/02 01:48:08;;;;;;;10.75;5.55;;;;;;;2.12;100.00;99640.66;5084248;28;20052;-77
2022/01/02 01:50:37;;;;;;;9.60;5.38;;;;;;;2.08;100.00;99646.38;5093871;28;20505;-77
2022/01/02 01:53:05;;;;;;;10.63;5.40;;;;;;;2.04;100.00;99643.06;5094789;28;20048;-77
2022/01/02 01:55:34;;;;;;;10.23;5.93;;;;;;;1.96;100.00;99632.06;5083272;28;20483;-77
2022/01/02 01:58:02;;;;;;;8.73;5.30;;;;;;;1.86;100.00;99631.06;5083096;28;20048;-77
2022/01/02 02:00:29;;;;;;;12.20;5.88;;;;;;;1.80;100.00;99631.53;5094864;28;20044;-77
2022/01/02 02:02:57;;;;;;;7.78;4.80;;;;;;;1.79;100.00;99627.16;5094709;28;20445;-77
2022/01/02 02:05:24;;;;;;;10.57;5.85;;;;;;;1.87;100.00;99638.16;5076160;28;20044;-77
2022/01/02 02:07:50;;;;;;;11.75;5.65;;;;;;;1.83;100.00;99625.94;5091314;28;20403;-78
2022/01/02 02:10:24;;;;;;;11.85;5.05;;;;;;;1.95;100.00;99627.69;5092166;28;20054;-78
2022/01/02 02:12:54;;;;;;;9.30;4.68;;;;;;;1.98;100.00;99630.13;5095129;28;20048;-78
2022/01/02 02:15:22;;;;;;;10.27;4.65;;;;;;;1.80;100.00;99621.66;5084184;28;20400;-78
2022/01/02 02:17:51;;;;;;;6.97;4.40;;;;;;;1.65;100.00;99615.66;5075097;28;20048;-78
2022/01/02 02:20:21;;;;;;;8.90;4.45;;;;;;;1.68;100.00;99610.06;5086104;28;20131;-78
2022/01/02 02:22:52;;;;;;;7.63;3.80;;;;;;;1.51;100.00;99613.19;5097823;28;20059;-78
2022/01/02 02:25:21;;;;;;;11.10;4.68;;;;;;;1.61;100.00;99605.28;5096531;28;20044;-78
2022/01/02 02:27:49;;;;;;;8.10;4.47;;;;;;;1.56;100.00;99594.91;5095154;28;20052;-78
2022/01/02 02:30:16;;;;;;;9.73;5.13;;;;;;;1.44;100.00;99585.97;5084848;28;20049;-78
2022/01/02 02:32:43;;;;;;;9.15;5.05;;;;;;;1.41;100.00;99592.41;5073989;28;20045;-78
2022/01/02 02:35:10;;;;;;;7.10;4.32;;;;;;;1.46;100.00;99578.69;5081529;28;20051;-78
2022/01/02 02:37:42;;;;;;;7.65;4.65;;;;;;;1.49;100.00;99589.19;5076348;28;20051;-78
2022/01/02 02:40:10;;;;;;;10.02;4.65;;;;;;;1.41;100.00;99587.06;5087033;28;20052;-78
2022/01/02 02:42:44;;;;;;;8.32;4.57;;;;;;;1.29;100.00;99577.28;5092264;28;20406;-78
2022/01/02 02:50:49;;;;;;;7.55;4.80;;;;;;;1.35;100.00;99571.44;5045841;28;20056;-78
2022/01/02 02:53:17;;;;;;;10.00;4.93;;;;;;;1.33;100.00;99560.00;5091654;28;20488;-78
2022/01/02 02:55:47;;;;;;;6.63;4.68;;;;;;;1.34;100.00;99556.38;5093569;28;20044;-78
2022/01/02 03:01:09;;;;;;;8.75;5.63;;;;;;;1.18;100.00;99550.47;5129323;27;20398;-78
2022/01/02 03:03:36;;;;;;;8.80;5.05;;;;;;;1.25;100.00;99538.31;5126723;27;20138;-78
2022/01/02 03:06:03;;;;;;;10.93;5.15;;;;;;;1.14;100.00;99523.03;5116965;27;20048;-79
2022/01/02 03:08:29;;;;;;;7.07;4.50;;;;;;;1.18;100.00;99529.03;5119663;27;20056;-78
2022/01/02 03:10:56;;;;;;;10.73;6.05;;;;;;;1.11;100.00;99520.59;5110721;28;20048;-79
2022/01/02 03:13:23;;;;;;;10.00;5.05;;;;;;;1.16;100.00;99537.19;5123455;28;20079;-79
2022/01/02 03:15:50;;;;;;;11.02;5.13;;;;;;;1.23;100.00;99549.16;5131194;28;20758;-78
2022/01/02 03:18:19;;;;;;;10.10;5.13;;;;;;;1.27;100.00;99544.41;5129726;28;20047;-79
2022/01/02 03:20:45;;;;;;;8.68;4.80;;;;;;;1.25;100.00;99543.69;5131253;27;20044;-78
2022/01/02 03:23:12;;;;;;;7.05;4.20;;;;;;;1.26;100.00;99542.69;5130469;27;20054;-78
2022/01/02 03:25:39;;;;;;;12.27;4.32;;;;;;;1.21;100.00;99550.22;5116488;27;20052;-78
2022/01/02 03:28:06;;;;;;;8.15;4.35;;;;;;;1.26;100.00;99539.16;5118253;28;20442;-78
2022/01/02 03:30:33;;;;;;;7.95;4.72;;;;;;;1.21;100.00;99535.00;5126577;27;20055;-78
2022/01/02 03:33:00;;;;;;;7.15;4.15;;;;;;;1.18;100.00;99534.38;5130267;28;20490;-78
2022/01/02 03:35:28;;;;;;;12.02;4.53;;;;;;;1.21;100.00;99535.00;5130872;27;20054;-78
2022/01/02 03:37:55;;;;;;;9.95;4.75;;;;;;;1.18;100.00;99535.22;5119827;27;20062;-79
2022/01/02 03:40:22;;;;;;;8.18;5.03;;;;;;;1.03;100.00;99520.31;5121760;28;20050;-78
2022/01/02 03:42:49;;;;;;;7.25;4.22;;;;;;;1.05;100.00;99526.41;5120532;27;20050;-78
2022/01/02 03:45:16;;;;;;;6.20;3.75;;;;;;;1.05;100.00;99523.72;5119773;28;20047;-78
2022/01/02 03:47:43;;;;;;;7.07;4.47;;;;;;;1.07;100.00;99521.81;5121318;28;20526;-78
2022/01/02 03:50:10;;;;;;;9.13;4.82;;;;;;;1.05;100.00;99521.94;5109868;28;20048;-78
2022/01/02 03:52:38;;;;;;;8.73;4.90;;;;;;;1.06;100.00;99512.91;5110726;28;20043;-78
2022/01/02 03:55:07;;;;;;;6.85;4.55;;;;;;;0.99;100.00;99510.81;5110076;28;20052;-79
2022/01/02 03:57:34;;;;;;;8.98;4.45;;;;;;;1.11;100.00;99503.69;5118411;28;20054;-78
2022/01/02 04:00:01;;;;;;;6.95;4.13;;;;;;;1.05;100.00;99502.31;5130106;27;20044;-78
2022/01/02 04:02:28;;;;;;;5.63;4.18;;;;;;;0.99;100.00;99511.66;5125553;27;20047;-78
2022/01/02 04:04:55;;;;;;;7.45;4.55;;;;;;;1.03;100.00;99501.59;5128735;27;20406;-78
2022/01/02 04:07:21;;;;;;;7.32;5.00;;;;;;;0.94;100.00;99500.44;5118771;27;20043;-78
2022/01/02 04:09:51;;;;;;;6.00;4.13;;;;;;;0.92;100.00;99504.19;5127796;27;20677;-78
2022/01/02 04:12:17;;;;;;;7.45;4.55;;;;;;;0.93;100.00;99501.41;5105997;27;20051;-78
2022/01/02 04:14:44;;;;;;;9.20;4.03;;;;;;;0.97;100.00;99499.38;5116629;28;20055;-78
2022/01/02 04:17:11;;;;;;;6.47;3.72;;;;;;;0.92;100.00;99499.72;5116153;28;20514;-78
2022/01/02 04:19:38;;;;;;;11.27;4.35;;;;;;;0.84;100.00;99505.66;5103460;28;20050;-78
2022/01/02 04:22:05;;;;;;;5.93;3.63;;;;;;;0.92;100.00;99505.06;5105061;28;20071;-78
2022/01/02 04:24:32;;;;;;;7.05;4.15;;;;;;;0.92;100.00;99499.72;5108905;28;20048;-78
2022/01/02 04:27:00;;;;;;;7.28;4.07;;;;;;;0.94;100.00;99491.56;5096182;28;20055;-78
2022/01/02 04:29:27;;;;;;;8.93;4.20;;;;;;;0.89;100.00;99483.88;5114122;28;20054;-78
2022/01/02 04:31:54;;;;;;;8.75;4.38;;;;;;;0.90;100.00;99482.06;5098790;27;20063;-78
2022/01/02 04:34:20;;;;;;;5.57;3.65;;;;;;;0.87;100.00;99467.06;5112116;28;20063;-79
2022/01/02 04:36:47;;;;;;;8.48;4.30;;;;;;;0.90;100.00;99469.50;5114963;28;20046;-79
2022/01/02 04:39:14;;;;;;;10.80;5.05;;;;;;;0.90;100.00;99474.03;5115940;28;20494;-78
2022/01/02 04:41:41;;;;;;;7.20;4.43;;;;;;;0.79;100.00;99474.84;5116046;28;20047;-78
2022/01/02 04:44:12;;;;;;;8.73;5.60;;;;;;;0.91;100.00;99479.25;5102242;27;20060;-79
2022/01/02 04:46:39;;;;;;;9.73;4.78;;;;;;;0.96;100.00;99486.94;5095812;28;20044;-78
2022/01/02 04:49:06;;;;;;;7.88;4.88;;;;;;;0.99;100.00;99465.28;5099407;28;20055;-78
2022/01/02 04:51:33;;;;;;;8.70;4.45;;;;;;;1.01;100.00;99464.22;5112219;27;20047;-78
2022/01/02 04:54:00;;;;;;;6.97;4.57;;;;;;;1.05;100.00;99454.13;5108283;28;20047;-78
2022/01/02 04:56:27;;;;;;;8.95;5.40;;;;;;;0.91;100.00;99447.13;5116081;28;20051;-78
2022/01/02 04:58:54;;;;;;;9.07;4.63;;;;;;;0.99;100.00;99446.56;5105424;28;20047;-78
2022/01/02 05:01:22;;;;;;;7.68;4.75;;;;;;;0.98;100.00;99443.03;5096743;28;20040;-78
2022/01/02 05:03:49;;;;;;;9.73;4.65;;;;;;;1.00;100.00;99432.22;5113220;28;20043;-78
2022/01/02 05:06:16;;;;;;;7.55;5.03;;;;;;;1.01;100.00;99429.41;5115579;28;20052;-78
2022/01/02 05:08:45;;;;;;;8.27;3.88;;;;;;;1.01;100.00;99440.13;5113378;27;20506;-79
2022/01/02 05:11:13;;;;;;;7.87;5.03;;;;;;;1.01;100.00;99445.47;5115576;28;20039;-78
2022/01/02 05:13:40;;;;;;;10.60;5.18;;;;;;;1.02;100.00;99432.94;5109219;28;20155;-79
2022/01/02 05:16:08;;;;;;;7.57;4.90;;;;;;;1.11;100.00;99432.22;5095218;28;20514;-79
2022/01/02 05:18:36;;;;;;;11.15;4.65;;;;;;;1.23;100.00;99425.06;5095333;28;20071;-79
2022/01/02 05:21:03;;;;;;;8.57;5.20;;;;;;;1.24;100.00;99440.19;5094938;28;20044;-79
2022/01/02 05:23:30;;;;;;;9.70;5.40;;;;;;;1.17;100.00;99428.22;5098248;28;20040;-79
2022/01/02 05:25:57;;;;;;;10.55;5.03;;;;;;;1.16;100.00;99432.75;5098832;28;20048;-79
2022/01/02 05:28:24;;;;;;;8.70;5.60;;;;;;;1.10;100.00;99426.97;5105436;28;20055;-79
2022/01/02 05:30:52;;;;;;;7.90;4.60;;;;;;;1.00;100.00;99402.75;5094213;28;20070;-78
2022/01/02 05:33:18;;;;;;;9.43;4.53;;;;;;;1.09;100.00;99419.94;5112811;28;20052;-78
2022/01/02 05:35:47;;;;;;;8.15;4.63;;;;;;;1.17;100.00;99425.53;5115345;28;20055;-78
2022/01/02 05:38:15;;;;;;;7.65;4.65;;;;;;;1.14;100.00;99425.78;5097644;28;20048;-78
2022/01/02 05:40:42;;;;;;;9.73;4.72;;;;;;;1.17;100.00;99417.50;5094261;28;20044;-78
2022/01/02 05:43:09;;;;;;;7.88;4.80;;;;;;;1.17;100.00;99415.69;5108410;28;20051;-78
2022/01/02 05:45:36;;;;;;;6.70;4.50;;;;;;;1.19;100.00;99405.72;5116824;27;20135;-78
2022/01/02 05:48:05;;;;;;;8.10;5.30;;;;;;;1.25;100.00;99401.72;5100314;28;20576;-78
2022/01/02 05:50:32;;;;;;;6.57;4.55;;;;;;;1.21;100.00;99397.56;5093984;28;20054;-78
2022/01/02 05:53:01;;;;;;;8.32;5.35;;;;;;;1.18;100.00;99393.28;5095431;28;20050;-78
2022/01/02 05:55:27;;;;;;;8.90;4.93;;;;;;;1.20;100.00;99395.84;5094402;28;20143;-78
2022/01/02 05:57:54;;;;;;;7.45;4.90;;;;;;;1.18;100.00;99392.44;5104466;28;20406;-78
2022/01/02 06:00:21;;;;;;;10.25;4.97;;;;;;;1.25;100.00;99396.38;5113873;28;20048;-79
2022/01/02 06:02:48;;;;;;;8.60;5.15;;;;;;;1.27;100.00;99389.03;5105357;28;20054;-78
2022/01/02 06:05:15;;;;;;;8.35;5.55;;;;;;;1.26;100.00;99387.34;5107875;28;20055;-78
2022/01/02 06:07:42;;;;;;;7.35;5.60;;;;;;;1.29;100.00;99381.72;5100958;28;20043;-78
2022/01/02 06:10:11;;;;;;;10.52;5.93;;;;;;;1.35;100.00;99378.56;5114037;28;20047;-78
2022/01/02 06:12:38;;;;;;;7.35;4.85;;;;;;;1.43;100.00;99369.94;5113780;28;20048;-78
2022/01/02 06:15:06;;;;;;;9.25;5.10;;;;;;;1.35;100.00;99377.72;5096691;28;20056;-78
2022/01/02 06:17:33;;;;;;;7.25;4.65;;;;;;;1.26;100.00;99381.13;5097364;28;20511;-78
2022/01/02 06:20:00;;;;;;;8.30;5.40;;;;;;;1.23;100.00;99375.06;5100304;28;20052;-78
2022/01/02 06:22:26;;;;;;;8.90;5.18;;;;;;;1.23;100.00;99366.16;5097485;28;20044;-78
2022/01/02 06:24:53;;;;;;;10.13;4.88;;;;;;;1.28;100.00;99384.53;5114578;28;20589;-78
2022/01/02 06:27:22;;;;;;;7.30;4.65;;;;;;;1.23;100.00;99383.09;5109216;28;20048;-78
2022/01/02 06:29:49;;;;;;;9.75;5.45;;;;;;;1.18;100.00;99365.66;5113333;28;20058;-78
2022/01/02 06:32:16;;;;;;;9.05;4.93;;;;;;;1.34;100.00;99363.50;5112732;28;20063;-78
2022/01/02 06:34:46;;;;;;;8.70;5.00;;;;;;;1.33;100.00;99364.47;5113849;28;20047;-78
2022/01/02 06:37:13;;;;;;;8.48;5.07;;;;;;;1.26;100.00;99363.22;5112387;28;20425;-78
2022/01/02 06:39:40;;;;;;;11.77;5.55;;;;;;;1.29;100.00;99373.69;5093582;28;20054;-78
2022/01/02 06:42:07;;;;;;;9.18;4.72;;;;;;;1.36;100.00;99374.94;5101774;28;20437;-78
2022/01/02 06:44:36;;;;;;;8.88;5.20;;;;;;;1.40;100.00;99367.50;5101943;28;20047;-78
2022/01/02 06:47:03;;;;;;;10.32;5.00;;;;;;;1.42;100.00;99384.31;5107942;28;20069;-78
2022/01/02 06:49:30;;;;;;;6.75;5.05;;;;;;;1.49;100.00;99392.69;5104990;28;20050;-78
2022/01/02 06:51:57;;;;;;;7.20;4.68;;;;;;;1.54;100.00;99383.34;5104173;28;20055;-78
2022/01/02 06:54:24;;;;;;;9.32;5.68;;;;;;;1.56;100.00;99383.22;5096903;28;20040;-81
2022/01/02 06:56:52;;;;;;;8.23;5.15;;;;;;;1.41;100.00;99378.09;5097246;28;20040;-80
2022/01/02 06:59:19;;;;;;;7.88;5.10;;;;;;;1.44;100.00;99385.03;5093029;28;20048;-79
2022/01/02 07:01:47;;;;;;;8.82;5.13;;;;;;;1.49;100.00;99384.66;5109517;28;20146;-79
2022/01/02 07:04:14;;;;;;;6.53;5.03;;;;;;;1.46;100.00;99371.50;5102049;27;20056;-79
2022/01/02 07:06:41;;;;;;;7.40;5.35;;;;;;;1.45;100.00;99364.47;5111337;28;20059;-79
2022/01/02 07:09:08;;;;;;;7.68;4.95;;;;;;;1.40;100.00;99354.09;5111798;28;20506;-79
2022/01/02 07:11:35;;;;;;;8.05;4.63;;;;;;;1.44;100.00;99358.25;5091451;28;20067;-79
2022/01/02 07:14:01;;;;;;;8.20;4.47;;;;;;;1.47;100.00;99357.16;5108560;28;20491;-79
2022/01/02 07:16:28;;;;;;;8.25;4.90;;;;;;;1.48;100.00;99346.31;5113173;28;20043;-79
2022/01/02 07:18:56;;;;;;;8.30;4.70;;;;;;;1.56;100.00;99351.06;5092848;28;20067;-79
2022/01/02 07:21:24;;;;;;;7.72;5.47;;;;;;;1.55;100.00;99346.66;5092287;28;20620;-79
2022/01/02 07:23:52;;;;;;;5.95;4.43;;;;;;;1.50;100.00;99330.94;5097045;28;20044;-79
2022/01/02 07:26:19;;;;;;;9.00;4.95;;;;;;;1.57;100.00;99339.38;5105993;28;20052;-79
2022/01/02 07:28:46;;;;;;;6.68;4.10;;;;;;;1.64;100.00;99348.63;5110141;28;20044;-79
2022/01/02 07:31:13;;;;;;;8.43;5.20;;;;;;;1.65;100.00;99330.72;5112823;28;20055;-79
2022/01/02 07:33:40;;;;;;;14.23;5.78;;;;;;;1.76;100.00;99336.91;5096641;28;20048;-79
2022/01/02 07:36:08;;;;;;;6.40;4.28;;;;;;;1.73;100.00;99338.97;5092766;28;20052;-79
2022/01/02 07:38:35;;;;;;;6.57;4.47;;;;;;;1.81;100.00;99347.25;5100739;28;20043;-79
2022/01/02 07:41:01;;;;;;;6.05;4.57;;;;;;;1.72;100.00;99356.06;5112635;28;20050;-79
2022/01/02 07:43:28;;;;;;;6.18;4.55;;;;;;;1.71;100.00;99355.19;5106481;28;20048;-79
2022/01/02 07:45:55;;;;;;;7.35;4.68;;;;;;;1.80;100.00;99360.78;5096710;28;20522;-79
2022/01/02 07:48:22;;;;;;;9.30;4.90;;;;;;;1.72;100.00;99348.00;5116331;28;20248;-79
2022/01/02 07:50:49;;;;;;;8.63;4.70;;;;;;;1.80;100.00;99355.44;5115807;28;20051;-79
2022/01/02 07:53:17;;;;;;;8.80;4.63;;;;;;;1.71;100.00;99360.53;5117207;28;20430;-79
2022/01/02 07:55:44;;;;;;;7.80;4.80;;;;;;;1.69;100.00;99359.81;5106295;27;20047;-79
2022/01/02 07:58:11;;;;;;;9.82;4.97;;;;;;;1.78;100.00;99366.28;5116539;28;20051;-79
2022/01/02 08:00:38;;;;;;;6.78;4.55;;;;;;;1.78;100.00;99358.22;5099196;27;20048;-79
2022/01/02 08:03:05;;;;;;;8.95;5.13;;;;;;;1.77;100.00;99351.16;5096108;28;20052;-79
2022/01/02 08:05:32;;;;;;;13.48;4.93;;;;;;;1.69;100.00;99345.56;5096242;28;20059;-79
2022/01/02 08:07:59;;;;;;;7.60;4.57;;;;;;;1.68;100.00;99342.03;5096045;28;20052;-79
2022/01/02 08:10:28;;;;;;;6.65;4.32;;;;;;;1.81;100.00;99351.75;5096444;28;20052;-79
2022/01/02 08:12:56;;;;;;;7.15;4.60;;;;;;;1.83;100.00;99353.34;5099207;28;20399;-79
2022/01/02 08:15:22;;;;;;;5.95;4.30;;;;;;;1.90;100.00;99338.47;5115453;27;20059;-78
2022/01/02 08:17:49;;;;;;;6.10;4.95;;;;;;;1.99;100.00;99350.28;5096376;28;20044;-79
2022/01/02 08:20:16;;;;;;;10.05;5.20;;;;;;;2.11;100.00;99356.47;5094939;28;20047;-79
2022/01/02 08:22:43;;;;;;;7.78;4.47;;;;;;;2.15;100.00;99349.00;5112330;28;20044;-79
2022/01/02 08:25:10;;;;;;;9.57;4.93;;;;;;;2.17;100.00;99349.72;5095073;28;20044;-79
2022/01/02 08:27:38;;;;;;;8.93;4.70;;;;;;;2.30;100.00;99356.66;5094955;28;20043;-79
2022/01/02 08:30:06;;;;;;;8.88;4.95;;;;;;;2.32;100.00;99351.16;5103151;27;20054;-79
2022/01/02 08:32:33;;;;;;;8.63;5.03;;;;;;;2.31;100.00;99357.47;5117894;27;20054;-79
2022/01/02 08:35:00;;;;;;;8.27;5.07;;;;;;;2.34;100.00;99356.38;5096206;27;20051;-79
2022/01/02 08:37:27;;;;;;;12.77;6.47;;;;;;;2.45;100.00;99359.00;5095071;28;20044;-79
2022/01/02 08:39:54;;;;;;;11.27;6.40;;;;;;;2.65;100.00;99349.31;5093911;28;20044;-79
2022/01/02 08:42:21;;;;;;;8.82;5.57;;;;;;;2.70;100.00;99346.22;5094792;28;20058;-79
2022/01/02 08:44:49;;;;;;;8.10;5.18;;;;;;;2.72;100.00;99318.25;5094523;28;20052;-79
2022/01/02 08:47:16;;;;;;;10.90;5.70;;;;;;;2.78;100.00;99317.72;5094412;28;20063;-79
2022/01/02 08:49:43;;;;;;;8.50;5.43;;;;;;;2.80;100.00;99341.75;5104863;28;20052;-79
2022/01/02 08:52:10;;;;;;;7.95;5.88;;;;;;;2.95;100.00;99339.59;5114847;28;20047;-79
2022/01/02 08:54:38;;;;;;;7.95;5.75;;;;;;;3.05;100.00;99340.50;5100771;28;20044;-79
2022/01/02 08:57:05;;;;;;;14.75;5.47;;;;;;;2.95;100.00;99329.72;5094925;28;20138;-79
2022/01/02 08:59:32;;;;;;;9.32;5.70;;;;;;;3.07;100.00;99326.94;5112889;28;20048;-79
2022/01/02 09:02:01;;;;;;;7.93;5.43;;;;;;;3.14;100.00;99338.88;5114872;28;20069;-79
2022/01/02 09:04:27;;;;;;;9.82;5.38;;;;;;;3.19;100.00;99345.53;5111664;28;20050;-79
2022/01/02 09:06:54;;;;;;;8.93;5.57;;;;;;;3.20;100.00;99335.63;5114351;28;20043;-79
2022/01/02 09:09:21;;;;;;;9.35;5.45;;;;;;;3.30;100.00;99338.38;5114218;28;20115;-79
2022/01/02 09:11:48;;;;;;;9.13;5.18;;;;;;;3.53;100.00;99358.69;5114969;28;20043;-79
2022/01/02 09:14:15;;;;;;;9.15;5.82;;;;;;;3.61;100.00;99365.25;5112948;28;20044;-79
2022/01/02 09:16:44;;;;;;;11.27;6.15;;;;;;;3.76;100.00;99355.81;5115345;28;20059;-79
2022/01/02 09:19:13;;;;;;;10.85;6.63;;;;;;;3.88;100.00;99352.06;5103217;27;20093;-80
2022/01/02 09:21:40;;;;;;;10.82;5.60;;;;;;;3.89;100.00;99320.63;5107284;28;20055;-79
2022/01/02 09:24:07;;;;;;;7.70;5.55;;;;;;;3.92;100.00;99314.13;5112611;28;20044;-79
2022/01/02 09:26:35;;;;;;;10.43;5.47;;;;;;;3.89;100.00;99328.69;5115099;27;20134;-79
2022/01/02 09:29:03;;;;;;;12.48;5.90;;;;;;;3.87;100.00;99312.69;5107957;28;20044;-79
2022/01/02 09:31:30;;;;;;;8.10;5.55;;;;;;;3.84;100.00;99317.47;5110912;27;20040;-80
2022/01/02 09:33:57;;;;;;;11.57;5.82;;;;;;;3.94;100.00;99323.72;5098064;28;20047;-79
2022/01/02 09:36:25;;;;;;;14.00;6.70;;;;;;;4.07;100.00;99326.16;5104080;28;20050;-79
2022/01/02 09:38:54;;;;;;;11.82;5.78;;;;;;;4.19;100.00;99346.56;5106944;28;20051;-79
2022/01/02 09:41:22;;;;;;;17.63;6.50;;;;;;;4.18;100.00;99344.03;5114305;28;20108;-79
2022/01/02 09:43:49;;;;;;;16.45;8.93;;;;;;;4.26;100.00;99333.44;5106194;28;20051;-80
2022/01/02 09:46:20;;;;;;;31.13;13.68;;;;;;;4.36;100.00;99366.56;5114001;27;20127;-79
2022/01/02 09:48:48;;;;;;;21.70;11.50;;;;;;;4.48;100.00;99345.75;5114049;28;20047;-79
2022/01/02 09:51:17;;;;;;;16.05;9.68;;;;;;;4.52;100.00;99352.56;5114282;28;20075;-80
2022/01/02 09:53:46;;;;;;;16.88;9.75;;;;;;;4.48;100.00;99352.97;5109682;28;20048;-79
2022/01/02 09:56:13;;;;;;;19.85;10.48;;;;;;;4.58;100.00;99353.84;5093992;28;20408;-79
2022/01/02 09:58:42;;;;;;;14.75;9.52;;;;;;;4.65;100.00;99332.56;5092664;28;20036;-79
2022/01/02 10:01:14;;;;;;;19.10;11.65;;;;;;;4.83;100.00;99357.78;5092960;28;20048;-80
2022/01/02 10:03:43;;;;;;;16.52;9.00;;;;;;;4.88;100.00;99339.34;5093480;28;20056;-80
2022/01/02 10:06:10;;;;;;;14.55;8.88;;;;;;;4.79;100.00;99340.22;5093590;28;20044;-80
2022/01/02 10:08:37;;;;;;;15.52;9.35;;;;;;;4.85;100.00;99323.47;5093025;28;20411;-80
2022/01/02 10:11:08;;;;;;;16.27;10.00;;;;;;;4.99;100.00;99327.56;5097927;28;20058;-79
2022/01/02 10:13:40;;;;;;;19.45;9.45;;;;;;;5.00;100.00;99345.44;5112859;28;20082;-79
2022/01/02 10:16:19;;;;;;;14.48;8.77;;;;;;;5.03;100.00;99334.38;5114057;28;20040;-80
2022/01/02 10:18:46;;;;;;;14.13;8.85;;;;;;;5.06;100.00;99319.72;5101245;28;20054;-79
2022/01/02 10:21:28;;;;;;;14.98;7.60;;;;;;;4.98;100.00;99336.63;5093442;28;20091;-79
2022/01/02 10:24:14;;;;;;;13.80;8.27;;;;;;;4.96;100.00;99317.06;5104257;28;20047;-80
2022/01/02 10:27:03;;;;;;;18.50;8.70;;;;;;;4.93;100.00;99303.91;5103765;28;20046;-80
2022/01/02 10:29:40;;;;;;;13.73;7.60;;;;;;;5.02;100.00;99307.56;5107563;28;20048;-80
2022/01/02 10:32:25;;;;;;;12.55;7.97;;;;;;;4.96;100.00;99279.34;5093122;28;20052;-79
2022/01/02 10:34:53;;;;;;;15.05;7.53;;;;;;;5.02;100.00;99291.41;5092545;28;20040;-80
2022/01/02 10:37:24;;;;;;;13.77;6.38;;;;;;;4.99;100.00;99275.53;5092942;28;20052;-79
2022/01/02 10:39:51;;;;;;;14.98;7.65;;;;;;;5.02;100.00;99273.38;5100506;28;20505;-79
2022/01/02 10:42:20;;;;;;;12.65;7.93;;;;;;;5.20;100.00;99269.91;5112685;28;20048;-80
2022/01/02 10:44:47;;;;;;;15.60;8.77;;;;;;;5.18;100.00;99255.72;5103846;28;20069;-79
2022/01/02 10:47:17;;;;;;;11.98;6.93;;;;;;;5.22;100.00;99255.28;5113375;28;20058;-79
2022/01/02 10:49:55;;;;;;;13.40;6.87;;;;;;;5.37;100.00;99261.03;5107002;28;20089;-79
2022/01/02 10:52:24;;;;;;;14.50;8.85;;;;;;;5.38;100.00;99224.16;5091857;28;20059;-80
2022/01/02 10:54:52;;;;;;;12.70;8.95;;;;;;;5.48;100.00;99243.84;5093050;28;20048;-79
2022/01/02 10:57:21;;;;;;;12.55;8.38;;;;;;;5.37;100.00;99214.34;5092303;28;20051;-79
2022/01/02 10:59:48;;;;;;;14.98;9.00;;;;;;;5.42;100.00;99218.31;5096715;28;20105;-79
2022/01/02 11:02:16;;;;;;;17.23;8.57;;;;;;;5.52;100.00;99226.31;5119833;28;20055;-80
2022/01/02 11:04:48;;;;;;;11.07;6.25;;;;;;;5.64;100.00;99229.66;5111962;28;20050;-80
2022/01/02 11:07:20;;;;;;;8.30;4.40;;;;;;;5.75;100.00;99228.59;5112849;28;20051;-79
2022/01/02 11:09:48;;;;;;;12.15;4.63;;;;;;;5.91;100.00;99233.31;5108539;28;20044;-79
2022/01/02 11:12:16;;;;;;;9.25;3.70;;;;;;;6.14;100.00;99244.53;5092160;28;20059;-79
2022/01/02 11:14:45;;;;;;;7.85;4.40;;;;;;;6.24;100.00;99257.97;5099074;28;20047;-80
2022/01/02 11:17:13;;;;;;;7.40;3.80;;;;;;;6.29;100.00;99261.91;5092681;28;20048;-84
2022/01/02 11:19:40;;;;;;;10.20;5.43;;;;;;;6.40;100.00;99268.03;5102904;28;20054;-84
2022/01/02 11:22:11;;;;;;;8.82;5.43;;;;;;;6.36;100.00;99254.03;5114328;28;20048;-79
2022/01/02 11:24:46;;;;;;;11.80;5.47;;;;;;;6.47;100.00;99261.88;5109461;28;20043;-79
2022/01/02 11:27:20;;;;;;;9.48;5.03;;;;;;;6.48;100.00;99263.56;5109878;28;20052;-79
2022/01/02 11:29:49;;;;;;;9.02;5.90;;;;;;;6.44;100.00;99243.28;5102207;28;20432;-79
2022/01/02 11:32:25;;;;;;;8.13;5.07;;;;;;;6.52;100.00;99239.81;5096310;28;20071;-79
2022/01/02 11:34:53;;;;;;;6.68;4.78;;;;;;;6.54;100.00;99235.94;5105418;27;20411;-79
2022/01/02 11:37:24;;;;;;;8.38;5.47;;;;;;;6.58;100.00;99231.09;5116088;28;20088;-79
2022/01/02 11:39:53;;;;;;;12.43;6.65;;;;;;;6.66;100.00;99254.59;5100109;28;20505;-79
2022/01/02 11:42:45;;;;;;;12.23;5.80;;;;;;;6.61;100.00;99227.19;5095839;28;20040;-79